Time,TemperatureF,DewpointF,PressureIn,WindDirection,WindDirectionDegrees,WindSpeedMPH,WindSpeedGustMPH,Humidity,HourlyPrecipIn,Conditions,Clouds,dailyrainin,SoftwareType,DateUTC
2013-06-15 00:01:00,57.0,49.2,29.09,NNW,337,0.0,0.0,75,0.00,,,0.00,WUHU216WMR100,2013-06-15 04:01:00,
2013-06-15 00:06:00,56.8,49.7,29.06,NNW,337,0.0,0.0,77,0.00,,,0.00,WUHU216WMR100,2013-06-15 04:06:00,
2013-06-15 00:11:00,56.8,50.1,29.06,NNW,337,0.0,0.0,78,0.00,,,0.00,WUHU216WMR100,2013-06-15 04:11:00,
2013-06-15 00:17:00,56.7,50.0,29.06,NNW,337,0.0,0.0,78,0.00,,,0.00,WUHU216WMR100,2013-06-15 04:17:00,
2013-06-15 00:22:00,56.5,49.8,29.06,NNW,337,0.0,0.0,78,0.00,,,0.00,WUHU216WMR100,2013-06-15 04:22:00,
2013-06-15 00:27:00,56.3,49.6,29.06,NNW,337,0.0,0.0,78,0.00,,,0.00,WUHU216WMR100,2013-06-15 04:27:00,
2013-06-15 00:32:00,56.1,49.4,29.06,NNW,337,0.0,0.0,78,0.00,,,0.00,WUHU216WMR100,2013-06-15 04:32:00,
2013-06-15 00:37:00,55.9,49.5,29.06,NNW,337,0.0,0.0,79,0.00,,,0.00,WUHU216WMR100,2013-06-15 04:37:00,
2013-06-15 00:42:00,55.9,49.5,29.06,NNW,337,0.0,0.0,79,0.00,,,0.00,WUHU216WMR100,2013-06-15 04:42:00,
2013-06-15 00:48:00,55.8,49.8,29.06,NNW,337,0.0,0.0,80,0.00,,,0.00,WUHU216WMR100,2013-06-15 04:48:00,
2013-06-15 00:53:00,55.6,49.9,29.06,NNW,337,0.0,0.0,81,0.00,,,0.00,WUHU216WMR100,2013-06-15 04:53:00,
2013-06-15 00:58:00,55.2,49.5,29.06,NNW,337,0.0,0.0,81,0.00,,,0.00,WUHU216WMR100,2013-06-15 04:58:00,
2013-06-15 01:03:00,55.0,49.3,29.06,NNW,337,0.0,0.0,81,0.00,,,0.00,WUHU216WMR100,2013-06-15 05:03:00,
2013-06-15 01:08:00,54.9,49.5,29.06,NNW,337,0.0,0.0,82,0.00,,,0.00,WUHU216WMR100,2013-06-15 05:08:00,
2013-06-15 01:13:00,54.7,49.3,29.06,NNW,337,0.0,0.0,82,0.00,,,0.00,WUHU216WMR100,2013-06-15 05:13:00,
2013-06-15 01:18:00,54.7,49.3,29.06,NNW,337,0.0,0.0,82,0.00,,,0.00,WUHU216WMR100,2013-06-15 05:18:00,
2013-06-15 01:23:00,54.5,49.1,29.06,NNW,337,0.0,0.0,82,0.00,,,0.00,WUHU216WMR100,2013-06-15 05:23:00,
2013-06-15 01:28:00,54.3,49.3,29.06,NNW,337,0.0,0.0,83,0.00,,,0.00,WUHU216WMR100,2013-06-15 05:28:00,
2013-06-15 01:33:00,54.3,49.3,29.06,NNW,337,0.0,0.0,83,0.00,,,0.00,WUHU216WMR100,2013-06-15 05:33:00,
2013-06-15 01:38:00,54.1,49.1,29.06,NNW,337,0.0,0.0,83,0.00,,,0.00,WUHU216WMR100,2013-06-15 05:38:00,
2013-06-15 01:43:00,53.8,49.1,29.06,NNW,337,0.0,0.0,84,0.00,,,0.00,WUHU216WMR100,2013-06-15 05:43:00,
2013-06-15 01:48:00,53.6,48.9,29.06,NNW,337,0.0,0.0,84,0.00,,,0.00,WUHU216WMR100,2013-06-15 05:48:00,
2013-06-15 01:53:00,53.4,48.7,29.06,NNW,337,0.0,0.0,84,0.00,,,0.00,WUHU216WMR100,2013-06-15 05:53:00,
2013-06-15 01:58:00,53.2,48.5,29.06,NNW,337,0.0,0.0,84,0.00,,,0.00,WUHU216WMR100,2013-06-15 05:58:00,
2013-06-15 02:03:00,53.1,48.4,29.06,NNW,337,0.0,0.0,84,0.00,,,0.00,WUHU216WMR100,2013-06-15 06:03:00,
2013-06-15 02:08:00,53.1,48.7,29.06,NNW,337,0.0,0.0,85,0.00,,,0.00,WUHU216WMR100,2013-06-15 06:08:00,
2013-06-15 02:14:00,52.9,48.5,29.06,NNW,337,0.0,0.0,85,0.00,,,0.00,WUHU216WMR100,2013-06-15 06:14:00,
2013-06-15 02:19:00,52.7,48.3,29.06,NNW,337,0.0,0.0,85,0.00,,,0.00,WUHU216WMR100,2013-06-15 06:19:00,
2013-06-15 02:24:00,52.5,48.4,29.06,NNW,337,0.0,0.0,86,0.00,,,0.00,WUHU216WMR100,2013-06-15 06:24:00,
2013-06-15 02:29:00,52.3,47.9,29.06,NNW,337,0.0,0.0,85,0.00,,,0.00,WUHU216WMR100,2013-06-15 06:29:00,
2013-06-15 02:34:00,52.3,48.2,29.06,NNW,337,0.0,0.0,86,0.00,,,0.00,WUHU216WMR100,2013-06-15 06:34:00,
2013-06-15 02:39:00,52.3,48.2,29.06,NNW,337,0.0,0.0,86,0.00,,,0.00,WUHU216WMR100,2013-06-15 06:39:00,
2013-06-15 02:44:00,52.2,48.1,29.06,NNW,337,0.0,0.0,86,0.00,,,0.00,WUHU216WMR100,2013-06-15 06:44:00,
2013-06-15 02:49:00,52.0,47.9,29.03,NNW,337,0.0,0.0,86,0.00,,,0.00,WUHU216WMR100,2013-06-15 06:49:00,
2013-06-15 02:54:00,51.8,48.0,29.03,NNW,337,0.0,0.0,87,0.00,,,0.00,WUHU216WMR100,2013-06-15 06:54:00,
2013-06-15 02:59:00,51.6,47.8,29.03,NNW,337,0.0,0.0,87,0.00,,,0.00,WUHU216WMR100,2013-06-15 06:59:00,
2013-06-15 03:04:00,51.6,48.1,29.06,NNW,337,0.0,0.0,88,0.00,,,0.00,WUHU216WMR100,2013-06-15 07:04:00,
2013-06-15 03:09:00,51.4,47.9,29.06,NNW,337,0.0,0.0,88,0.00,,,0.00,WUHU216WMR100,2013-06-15 07:09:00,
2013-06-15 03:14:00,51.3,47.8,29.06,NNW,337,0.0,0.0,88,0.00,,,0.00,WUHU216WMR100,2013-06-15 07:14:00,
2013-06-15 03:19:00,51.1,47.6,29.03,NNW,337,0.0,0.0,88,0.00,,,0.00,WUHU216WMR100,2013-06-15 07:19:00,
2013-06-15 03:24:00,51.3,47.8,29.03,NNW,337,0.0,0.0,88,0.00,,,0.00,WUHU216WMR100,2013-06-15 07:24:00,
2013-06-15 03:29:00,50.9,47.4,29.03,NNW,337,0.0,0.0,88,0.00,,,0.00,WUHU216WMR100,2013-06-15 07:29:00,
2013-06-15 03:34:00,50.9,47.4,29.03,NNW,337,0.0,0.0,88,0.00,,,0.00,WUHU216WMR100,2013-06-15 07:34:00,
2013-06-15 03:39:00,50.7,47.2,29.03,NNW,337,0.0,0.0,88,0.00,,,0.00,WUHU216WMR100,2013-06-15 07:39:00,
2013-06-15 03:44:00,50.7,47.2,29.03,NNW,337,0.0,0.0,88,0.00,,,0.00,WUHU216WMR100,2013-06-15 07:44:00,
2013-06-15 03:49:00,50.7,47.2,29.06,NNW,337,0.0,0.0,88,0.00,,,0.00,WUHU216WMR100,2013-06-15 07:49:00,
2013-06-15 03:54:00,50.5,47.3,29.06,NNW,337,0.0,0.0,89,0.00,,,0.00,WUHU216WMR100,2013-06-15 07:54:00,
2013-06-15 03:59:00,50.4,47.0,29.06,NNW,337,0.0,0.0,88,0.00,,,0.00,WUHU216WMR100,2013-06-15 07:59:00,
2013-06-15 04:04:00,50.4,47.2,29.06,NNW,337,0.0,0.0,89,0.00,,,0.00,WUHU216WMR100,2013-06-15 08:04:00,
2013-06-15 04:09:00,50.2,46.8,29.06,NNW,337,0.0,0.0,88,0.00,,,0.00,WUHU216WMR100,2013-06-15 08:09:00,
2013-06-15 04:14:00,50.4,47.2,29.06,NNW,337,0.0,0.0,89,0.00,,,0.00,WUHU216WMR100,2013-06-15 08:14:00,
2013-06-15 04:19:00,50.2,47.1,29.06,NNW,337,0.0,0.0,89,0.00,,,0.00,WUHU216WMR100,2013-06-15 08:19:00,
2013-06-15 04:24:00,50.4,47.5,29.06,NNW,337,0.0,0.0,90,0.00,,,0.00,WUHU216WMR100,2013-06-15 08:24:00,
2013-06-15 04:30:00,50.2,47.3,29.06,NNW,337,0.0,0.0,90,0.00,,,0.00,WUHU216WMR100,2013-06-15 08:30:00,
2013-06-15 04:35:00,50.0,47.1,29.06,NNW,337,0.0,0.0,90,0.00,,,0.00,WUHU216WMR100,2013-06-15 08:35:00,
2013-06-15 04:40:00,50.0,47.4,29.06,NNW,337,0.0,0.0,91,0.00,,,0.00,WUHU216WMR100,2013-06-15 08:40:00,
2013-06-15 04:45:00,49.6,47.0,29.06,NNW,337,0.0,0.0,91,0.00,,,0.00,WUHU216WMR100,2013-06-15 08:45:00,
2013-06-15 04:50:00,49.5,46.9,29.06,NNW,337,0.0,0.0,91,0.00,,,0.00,WUHU216WMR100,2013-06-15 08:50:00,
2013-06-15 04:55:00,49.5,46.9,29.06,NNW,337,0.0,0.0,91,0.00,,,0.00,WUHU216WMR100,2013-06-15 08:55:00,
2013-06-15 05:00:00,49.3,46.7,29.06,NNW,337,0.0,0.0,91,0.00,,,0.00,WUHU216WMR100,2013-06-15 09:00:00,
2013-06-15 05:05:00,49.3,47.0,29.06,NNW,337,0.0,0.0,92,0.00,,,0.00,WUHU216WMR100,2013-06-15 09:05:00,
2013-06-15 05:10:00,49.1,46.5,29.06,NNW,337,0.0,0.0,91,0.00,,,0.00,WUHU216WMR100,2013-06-15 09:10:00,
2013-06-15 05:15:00,49.3,47.0,29.06,NNW,337,0.0,0.0,92,0.00,,,0.00,WUHU216WMR100,2013-06-15 09:15:00,
2013-06-15 05:20:00,49.3,47.3,29.06,NNW,337,0.0,0.0,93,0.00,,,0.00,WUHU216WMR100,2013-06-15 09:20:00,
2013-06-15 05:25:00,48.9,46.6,29.06,NNW,337,0.0,0.0,92,0.00,,,0.00,WUHU216WMR100,2013-06-15 09:25:00,
2013-06-15 05:30:00,48.7,46.4,29.06,NNW,337,0.0,0.0,92,0.00,,,0.00,WUHU216WMR100,2013-06-15 09:30:00,
2013-06-15 05:35:00,48.7,46.4,29.09,NNW,337,0.0,0.0,92,0.00,,,0.00,WUHU216WMR100,2013-06-15 09:35:00,
2013-06-15 05:40:00,48.7,46.4,29.09,NNW,337,0.0,0.0,92,0.00,,,0.00,WUHU216WMR100,2013-06-15 09:40:00,
2013-06-15 05:45:00,48.7,46.4,29.09,NNW,337,0.0,0.0,92,0.00,,,0.00,WUHU216WMR100,2013-06-15 09:45:00,
2013-06-15 05:50:00,48.7,46.4,29.09,NNW,337,0.0,0.0,92,0.00,,,0.00,WUHU216WMR100,2013-06-15 09:50:00,
2013-06-15 05:55:00,48.6,46.3,29.09,NNW,337,0.0,0.0,92,0.00,,,0.00,WUHU216WMR100,2013-06-15 09:55:00,
2013-06-15 06:00:00,48.6,46.6,29.09,NNW,337,0.0,0.0,93,0.00,,,0.00,WUHU216WMR100,2013-06-15 10:00:00,
2013-06-15 06:05:00,48.6,46.6,29.09,NNW,337,0.0,0.0,93,0.00,,,0.00,WUHU216WMR100,2013-06-15 10:05:00,
2013-06-15 06:10:00,48.6,46.6,29.09,NNW,337,0.0,0.0,93,0.00,,,0.00,WUHU216WMR100,2013-06-15 10:10:00,
2013-06-15 06:15:00,48.7,46.7,29.09,NNW,337,0.0,0.0,93,0.00,,,0.00,WUHU216WMR100,2013-06-15 10:15:00,
2013-06-15 06:20:00,48.9,46.9,29.06,NNW,337,0.0,0.0,93,0.00,,,0.00,WUHU216WMR100,2013-06-15 10:20:00,
2013-06-15 06:25:00,49.3,47.6,29.06,NNW,337,0.0,0.0,94,0.00,,,0.00,WUHU216WMR100,2013-06-15 10:25:00,
2013-06-15 06:30:00,49.5,47.8,29.06,NNW,337,0.0,0.0,94,0.00,,,0.00,WUHU216WMR100,2013-06-15 10:30:00,
2013-06-15 06:35:00,49.8,48.1,29.09,NNW,337,0.0,0.0,94,0.00,,,0.00,WUHU216WMR100,2013-06-15 10:35:00,
2013-06-15 06:40:00,50.0,48.3,29.09,NNW,337,0.0,0.0,94,0.00,,,0.00,WUHU216WMR100,2013-06-15 10:40:00,
2013-06-15 06:45:00,50.2,48.5,29.09,NNW,337,0.0,0.0,94,0.00,,,0.00,WUHU216WMR100,2013-06-15 10:45:00,
2013-06-15 06:50:00,50.7,49.3,29.06,NNW,337,0.0,0.0,95,0.00,,,0.00,WUHU216WMR100,2013-06-15 10:50:00,
2013-06-15 06:55:00,51.3,49.9,29.06,NNW,337,0.0,0.0,95,0.00,,,0.00,WUHU216WMR100,2013-06-15 10:55:00,
2013-06-15 07:00:00,51.8,50.4,29.06,NNW,337,0.0,0.0,95,0.00,,,0.00,WUHU216WMR100,2013-06-15 11:00:00,
2013-06-15 07:05:00,52.3,50.9,29.06,NNW,337,0.0,0.0,95,0.00,,,0.00,WUHU216WMR100,2013-06-15 11:05:00,
2013-06-15 07:11:00,53.6,52.2,29.06,NNW,337,0.0,0.0,95,0.00,,,0.00,WUHU216WMR100,2013-06-15 11:11:00,
2013-06-15 07:16:00,54.3,52.9,29.06,NNW,337,0.0,0.0,95,0.00,,,0.00,WUHU216WMR100,2013-06-15 11:16:00,
2013-06-15 07:21:00,55.2,53.8,29.09,NNW,337,0.0,0.0,95,0.00,,,0.00,WUHU216WMR100,2013-06-15 11:21:00,
2013-06-15 07:26:00,55.8,54.1,29.09,NNW,337,0.0,0.0,94,0.00,,,0.00,WUHU216WMR100,2013-06-15 11:26:00,
2013-06-15 07:31:00,56.1,54.4,29.09,NNW,337,0.0,0.0,94,0.00,,,0.00,WUHU216WMR100,2013-06-15 11:31:00,
2013-06-15 07:36:00,56.7,54.7,29.09,NNW,337,0.0,0.0,93,0.00,,,0.00,WUHU216WMR100,2013-06-15 11:36:00,
2013-06-15 07:41:00,57.2,54.9,29.09,NNW,337,0.4,0.9,92,0.00,,,0.00,WUHU216WMR100,2013-06-15 11:41:00,
2013-06-15 07:46:00,57.7,55.4,29.09,NNW,337,0.0,0.9,92,0.00,,,0.00,WUHU216WMR100,2013-06-15 11:46:00,
2013-06-15 07:51:00,58.1,55.5,29.09,NNW,337,0.0,0.0,91,0.00,,,0.00,WUHU216WMR100,2013-06-15 11:51:00,
2013-06-15 07:56:00,58.5,55.5,29.09,NNW,337,0.0,0.0,90,0.00,,,0.00,WUHU216WMR100,2013-06-15 11:56:00,
2013-06-15 08:01:00,59.2,55.9,29.09,NNW,337,0.0,0.0,89,0.00,,,0.00,WUHU216WMR100,2013-06-15 12:01:00,
2013-06-15 08:06:00,59.5,55.0,29.12,NNW,337,0.0,1.3,85,0.00,,,0.00,WUHU216WMR100,2013-06-15 12:06:00,
2013-06-15 08:11:00,60.3,55.5,29.12,NNW,337,0.0,1.3,84,0.00,,,0.00,WUHU216WMR100,2013-06-15 12:11:00,
2013-06-15 08:16:00,60.8,55.3,29.12,NNW,337,0.3,1.1,82,0.00,,,0.00,WUHU216WMR100,2013-06-15 12:16:00,
2013-06-15 08:21:00,61.3,54.8,29.12,NNW,337,0.0,1.1,79,0.00,,,0.00,WUHU216WMR100,2013-06-15 12:21:00,
2013-06-15 08:26:00,62.1,55.2,29.12,NNW,337,1.0,2.0,78,0.00,,,0.00,WUHU216WMR100,2013-06-15 12:26:00,
2013-06-15 08:31:00,63.0,55.4,29.12,NNW,337,0.0,2.0,76,0.00,,,0.00,WUHU216WMR100,2013-06-15 12:31:00,
2013-06-15 08:36:00,63.7,55.0,29.12,NNW,337,0.0,1.3,73,0.00,,,0.00,WUHU216WMR100,2013-06-15 12:36:00,
2013-06-15 08:41:00,64.6,54.7,29.12,NNW,337,0.0,1.6,70,0.00,,,0.00,WUHU216WMR100,2013-06-15 12:41:00,
2013-06-15 08:46:00,65.5,54.8,29.12,NNW,337,0.0,1.6,68,0.00,,,0.00,WUHU216WMR100,2013-06-15 12:46:00,
2013-06-15 08:51:00,65.8,53.9,29.12,NNW,337,1.6,2.0,65,0.00,,,0.00,WUHU216WMR100,2013-06-15 12:51:00,
2013-06-15 08:56:00,66.7,53.0,29.12,NNW,337,2.2,3.4,61,0.00,,,0.00,WUHU216WMR100,2013-06-15 12:56:00,
2013-06-15 09:01:00,67.3,52.6,29.12,NNW,337,1.8,3.4,59,0.00,,,0.00,WUHU216WMR100,2013-06-15 13:01:00,
2013-06-15 09:06:00,67.8,51.2,29.12,NNW,337,2.5,3.4,55,0.00,,,0.00,WUHU216WMR100,2013-06-15 13:06:00,
2013-06-15 09:11:00,68.0,50.8,29.12,NNW,337,1.9,3.1,54,0.00,,,0.00,WUHU216WMR100,2013-06-15 13:11:00,
2013-06-15 09:16:00,68.5,51.8,29.12,NNW,337,0.7,3.1,55,0.00,,,0.00,WUHU216WMR100,2013-06-15 13:16:00,
2013-06-15 09:21:00,69.1,50.8,29.12,SSW,202,2.5,3.8,52,0.00,,,0.00,WUHU216WMR100,2013-06-15 13:21:00,
2013-06-15 09:26:00,70.3,50.3,29.12,SSW,202,0.0,3.8,49,0.00,,,0.00,WUHU216WMR100,2013-06-15 13:26:00,
2013-06-15 09:31:00,70.9,51.4,29.12,SSW,202,1.4,3.4,50,0.00,,,0.00,WUHU216WMR100,2013-06-15 13:31:00,
2013-06-15 09:37:00,71.8,51.7,29.12,SSW,202,1.5,3.4,49,0.00,,,0.00,WUHU216WMR100,2013-06-15 13:37:00,
2013-06-15 09:42:00,71.8,51.1,29.12,South,180,1.0,2.5,48,0.00,,,0.00,WUHU216WMR100,2013-06-15 13:42:00,
2013-06-15 09:47:00,73.0,51.6,29.12,South,180,0.9,2.5,47,0.00,,,0.00,WUHU216WMR100,2013-06-15 13:47:00,
2013-06-15 09:52:00,73.0,50.4,29.12,South,180,1.8,2.9,45,0.00,,,0.00,WUHU216WMR100,2013-06-15 13:52:00,
2013-06-15 09:57:00,73.4,50.1,29.12,WNW,292,2.5,3.1,44,0.00,,,0.00,WUHU216WMR100,2013-06-15 13:57:00,
2013-06-15 10:02:00,74.3,50.9,29.12,ESE,112,1.1,3.1,44,0.00,,,0.00,WUHU216WMR100,2013-06-15 14:02:00,
2013-06-15 10:07:00,75.0,50.3,29.12,NW,315,3.1,4.3,42,0.00,,,0.00,WUHU216WMR100,2013-06-15 14:07:00,
2013-06-15 10:12:00,75.7,50.3,29.12,ESE,112,2.2,4.3,41,0.00,,,0.00,WUHU216WMR100,2013-06-15 14:12:00,
2013-06-15 10:17:00,76.6,51.1,29.12,ESE,114,1.2,3.8,41,0.00,,,0.00,WUHU216WMR100,2013-06-15 14:17:00,
2013-06-15 10:22:00,77.0,47.1,29.12,West,270,2.7,3.8,35,0.00,,,0.00,WUHU216WMR100,2013-06-15 14:22:00,
2013-06-15 10:27:00,76.6,47.5,29.12,South,180,2.5,4.9,36,0.00,,,0.00,WUHU216WMR100,2013-06-15 14:27:00,
2013-06-15 10:32:00,76.3,48.0,29.12,SW,225,2.3,4.9,37,0.00,,,0.00,WUHU216WMR100,2013-06-15 14:32:00,
2013-06-15 10:37:00,76.6,45.2,29.12,NW,315,3.4,4.9,33,0.00,,,0.00,WUHU216WMR100,2013-06-15 14:37:00,
2013-06-15 10:42:00,77.7,46.9,29.12,NNW,337,1.3,4.5,34,0.00,,,0.00,WUHU216WMR100,2013-06-15 14:42:00,
2013-06-15 10:47:00,78.8,47.1,29.12,NE,45,1.4,4.3,33,0.00,,,0.00,WUHU216WMR100,2013-06-15 14:47:00,
2013-06-15 10:52:00,78.8,46.3,29.12,West,270,2.0,3.1,32,0.00,,,0.00,WUHU216WMR100,2013-06-15 14:52:00,
2013-06-15 10:57:00,79.2,45.8,29.12,NNW,337,2.1,4.3,31,0.00,,,0.00,WUHU216WMR100,2013-06-15 14:57:00,
2013-06-15 11:03:00,79.3,45.0,29.12,WNW,290,2.3,4.3,30,0.00,,,0.00,WUHU216WMR100,2013-06-15 15:03:00,
2013-06-15 11:08:00,79.0,43.9,29.12,SW,225,3.4,5.8,29,0.00,,,0.00,WUHU216WMR100,2013-06-15 15:08:00,
2013-06-15 11:13:00,81.0,45.6,29.12,WSW,247,2.0,5.8,29,0.00,,,0.00,WUHU216WMR100,2013-06-15 15:13:00,
2013-06-15 11:18:00,81.5,42.2,29.12,WSW,247,1.1,3.4,25,0.00,,,0.00,WUHU216WMR100,2013-06-15 15:18:00,
2013-06-15 11:23:00,82.2,45.7,29.12,WSW,247,2.5,3.1,28,0.00,,,0.00,WUHU216WMR100,2013-06-15 15:23:00,
2013-06-15 11:28:00,82.4,44.0,29.12,NNE,22,2.2,3.8,26,0.00,,,0.00,WUHU216WMR100,2013-06-15 15:28:00,
2013-06-15 11:33:00,82.8,46.2,29.09,SW,225,1.6,3.8,28,0.00,,,0.00,WUHU216WMR100,2013-06-15 15:33:00,
2013-06-15 11:38:00,82.0,42.6,29.09,NW,315,2.7,5.4,25,0.00,,,0.00,WUHU216WMR100,2013-06-15 15:38:00,
2013-06-15 11:43:00,83.3,42.7,29.09,WNW,292,0.9,5.4,24,0.00,,,0.00,WUHU216WMR100,2013-06-15 15:43:00,
2013-06-15 11:48:00,82.6,41.0,29.09,South,180,3.1,4.0,23,0.00,,,0.00,WUHU216WMR100,2013-06-15 15:48:00,
2013-06-15 11:53:00,82.8,41.2,29.09,North,0,2.5,4.7,23,0.00,,,0.00,WUHU216WMR100,2013-06-15 15:53:00,
2013-06-15 11:58:00,82.4,39.7,29.09,North,356,3.3,4.9,22,0.00,,,0.00,WUHU216WMR100,2013-06-15 15:58:00,
2013-06-15 12:03:00,82.2,41.7,29.09,West,270,3.1,4.9,24,0.00,,,0.00,WUHU216WMR100,2013-06-15 16:03:00,
2013-06-15 12:08:00,82.6,41.0,29.09,WNW,292,2.2,4.9,23,0.00,,,0.00,WUHU216WMR100,2013-06-15 16:08:00,
2013-06-15 12:13:00,79.5,38.4,29.09,North,354,4.2,6.0,23,0.00,,,0.00,WUHU216WMR100,2013-06-15 16:13:00,
2013-06-15 12:18:00,81.7,40.2,29.09,NW,315,3.1,6.0,23,0.00,,,0.00,WUHU216WMR100,2013-06-15 16:18:00,
2013-06-15 12:23:00,79.0,39.0,29.09,NNW,340,3.3,6.5,24,0.00,,,0.00,WUHU216WMR100,2013-06-15 16:23:00,
2013-06-15 12:28:00,81.3,41.0,29.09,ENE,67,3.6,6.5,24,0.00,,,0.00,WUHU216WMR100,2013-06-15 16:28:00,
2013-06-15 12:33:00,80.4,39.1,29.09,ENE,67,3.6,6.0,23,0.00,,,0.00,WUHU216WMR100,2013-06-15 16:33:00,
2013-06-15 12:38:00,78.4,40.6,29.09,NNW,337,2.7,5.6,26,0.00,,,0.00,WUHU216WMR100,2013-06-15 16:38:00,
2013-06-15 12:43:00,80.1,41.0,29.09,West,270,3.1,5.6,25,0.00,,,0.00,WUHU216WMR100,2013-06-15 16:43:00,
2013-06-15 12:48:00,82.4,40.8,29.09,NNW,337,3.8,6.3,23,0.00,,,0.00,WUHU216WMR100,2013-06-15 16:48:00,
2013-06-15 12:53:00,82.9,38.9,29.09,North,0,2.7,6.3,21,0.00,,,0.00,WUHU216WMR100,2013-06-15 16:53:00,
2013-06-15 12:58:00,83.8,39.7,29.09,SSW,203,2.1,6.0,21,0.00,,,0.00,WUHU216WMR100,2013-06-15 16:58:00,
2013-06-15 13:03:00,84.9,41.8,29.09,WSW,247,2.2,6.0,22,0.00,,,0.00,WUHU216WMR100,2013-06-15 17:03:00,
2013-06-15 13:08:00,85.1,40.7,29.09,SSE,157,2.5,5.8,21,0.00,,,0.00,WUHU216WMR100,2013-06-15 17:08:00,
2013-06-15 13:13:00,82.8,38.8,29.09,WNW,292,3.6,6.0,21,0.00,,,0.00,WUHU216WMR100,2013-06-15 17:13:00,
2013-06-15 13:18:00,84.2,38.8,29.09,NW,325,3.6,6.0,20,0.00,,,0.00,WUHU216WMR100,2013-06-15 17:18:00,
2013-06-15 13:23:00,85.5,39.8,29.09,West,270,2.5,5.6,20,0.00,,,0.00,WUHU216WMR100,2013-06-15 17:23:00,
2013-06-15 13:28:00,85.6,39.9,29.09,WSW,247,2.5,4.0,20,0.00,,,0.00,WUHU216WMR100,2013-06-15 17:28:00,
2013-06-15 13:33:00,85.6,39.9,29.09,WSW,247,2.7,4.9,20,0.00,,,0.00,WUHU216WMR100,2013-06-15 17:33:00,
2013-06-15 13:38:00,84.7,39.2,29.09,NE,45,4.3,6.0,20,0.00,,,0.00,WUHU216WMR100,2013-06-15 17:38:00,
2013-06-15 13:43:00,85.3,39.7,29.09,West,270,2.9,6.0,20,0.00,,,0.00,WUHU216WMR100,2013-06-15 17:43:00,
2013-06-15 13:48:00,85.5,39.8,29.09,NW,315,3.6,4.3,20,0.00,,,0.00,WUHU216WMR100,2013-06-15 17:48:00,
2013-06-15 13:53:00,85.6,39.9,29.09,WNW,292,2.8,6.0,20,0.00,,,0.00,WUHU216WMR100,2013-06-15 17:53:00,
2013-06-15 13:58:00,86.7,39.5,29.09,SW,225,2.9,6.0,19,0.00,,,0.00,WUHU216WMR100,2013-06-15 17:58:00,
2013-06-15 14:03:00,86.4,39.3,29.06,West,270,2.9,4.0,19,0.00,,,0.00,WUHU216WMR100,2013-06-15 18:03:00,
2013-06-15 14:08:00,86.5,39.3,29.06,West,270,2.7,4.0,19,0.00,,,0.00,WUHU216WMR100,2013-06-15 18:08:00,
2013-06-15 14:13:00,86.7,39.5,29.06,South,180,2.9,6.0,19,0.00,,,0.00,WUHU216WMR100,2013-06-15 18:13:00,
2013-06-15 14:18:00,87.1,39.8,29.06,SE,135,2.5,6.0,19,0.00,,,0.00,WUHU216WMR100,2013-06-15 18:18:00,
2013-06-15 14:23:00,85.8,40.1,29.06,North,0,1.5,4.9,20,0.00,,,0.00,WUHU216WMR100,2013-06-15 18:23:00,
2013-06-15 14:28:00,87.1,39.8,29.06,ENE,67,0.7,3.4,19,0.00,,,0.00,WUHU216WMR100,2013-06-15 18:28:00,
2013-06-15 14:33:00,87.6,40.2,29.06,SSE,157,2.3,3.6,19,0.00,,,0.00,WUHU216WMR100,2013-06-15 18:33:00,
2013-06-15 14:38:00,87.6,41.6,29.06,SSE,157,2.2,3.6,20,0.00,,,0.00,WUHU216WMR100,2013-06-15 18:38:00,
2013-06-15 14:43:00,87.6,40.2,29.06,SW,216,2.5,3.8,19,0.00,,,0.00,WUHU216WMR100,2013-06-15 18:43:00,
2013-06-15 14:48:00,87.1,39.8,29.06,SSW,202,3.1,6.0,19,0.00,,,0.00,WUHU216WMR100,2013-06-15 18:48:00,
2013-06-15 14:53:00,86.9,39.7,29.06,East,90,3.6,6.0,19,0.00,,,0.00,WUHU216WMR100,2013-06-15 18:53:00,
2013-06-15 14:58:00,86.5,39.3,29.06,WSW,247,4.7,6.3,19,0.00,,,0.00,WUHU216WMR100,2013-06-15 18:58:00,
2013-06-15 15:03:00,87.6,40.2,29.06,WSW,247,2.2,6.3,19,0.00,,,0.00,WUHU216WMR100,2013-06-15 19:03:00,
2013-06-15 15:08:00,88.2,40.7,29.06,SSW,202,2.0,4.7,19,0.00,,,0.00,WUHU216WMR100,2013-06-15 19:08:00,
2013-06-15 15:13:00,88.2,40.7,29.06,East,90,2.0,3.6,19,0.00,,,0.00,WUHU216WMR100,2013-06-15 19:13:00,
2013-06-15 15:18:00,87.4,40.1,29.06,WSW,256,2.7,3.8,19,0.00,,,0.00,WUHU216WMR100,2013-06-15 19:18:00,
2013-06-15 15:23:00,87.6,40.2,29.06,ESE,117,2.5,4.0,19,0.00,,,0.00,WUHU216WMR100,2013-06-15 19:23:00,
2013-06-15 15:28:00,86.4,39.3,29.06,SE,135,1.8,4.9,19,0.00,,,0.00,WUHU216WMR100,2013-06-15 19:28:00,
2013-06-15 15:33:00,87.8,40.4,29.06,WSW,247,1.6,4.9,19,0.00,,,0.00,WUHU216WMR100,2013-06-15 19:33:00,
2013-06-15 15:38:00,88.2,40.7,29.06,WSW,247,0.9,3.6,19,0.00,,,0.00,WUHU216WMR100,2013-06-15 19:38:00,
2013-06-15 15:43:00,87.6,40.2,29.06,SSE,166,3.5,7.4,19,0.00,,,0.00,WUHU216WMR100,2013-06-15 19:43:00,
2013-06-15 15:48:00,87.1,39.8,29.06,WSW,247,3.8,7.4,19,0.00,,,0.00,WUHU216WMR100,2013-06-15 19:48:00,
2013-06-15 15:53:00,86.5,39.3,29.06,SSE,157,3.4,5.4,19,0.00,,,0.00,WUHU216WMR100,2013-06-15 19:53:00,
2013-06-15 15:58:00,87.4,40.1,29.06,SSW,202,2.5,4.7,19,0.00,,,0.00,WUHU216WMR100,2013-06-15 19:58:00,
2013-06-15 16:04:00,88.3,40.8,29.06,WSW,247,2.0,5.6,19,0.00,,,0.00,WUHU216WMR100,2013-06-15 20:04:00,
2013-06-15 16:09:00,86.0,38.9,29.06,NNW,337,2.7,5.6,19,0.00,,,0.00,WUHU216WMR100,2013-06-15 20:09:00,
2013-06-15 16:14:00,85.3,38.4,29.06,SSE,157,2.3,4.3,19,0.00,,,0.00,WUHU216WMR100,2013-06-15 20:14:00,
2013-06-15 16:19:00,84.2,37.5,29.06,WSW,247,3.4,4.3,19,0.00,,,0.00,WUHU216WMR100,2013-06-15 20:19:00,
2013-06-15 16:24:00,83.7,38.3,29.06,SSW,202,2.7,5.4,20,0.00,,,0.00,WUHU216WMR100,2013-06-15 20:24:00,
2013-06-15 16:29:00,85.3,39.7,29.06,West,270,4.0,9.4,20,0.00,,,0.00,WUHU216WMR100,2013-06-15 20:29:00,
2013-06-15 16:34:00,86.9,39.7,29.06,SSW,202,2.9,9.4,19,0.00,,,0.00,WUHU216WMR100,2013-06-15 20:34:00,
2013-06-15 16:39:00,86.2,39.1,29.06,SW,225,4.0,8.1,19,0.00,,,0.00,WUHU216WMR100,2013-06-15 20:39:00,
2013-06-15 16:44:00,85.1,39.5,29.06,SSW,194,2.1,4.9,20,0.00,,,0.00,WUHU216WMR100,2013-06-15 20:44:00,
2013-06-15 16:49:00,84.2,38.8,29.06,WSW,247,2.9,4.0,20,0.00,,,0.00,WUHU216WMR100,2013-06-15 20:49:00,
2013-06-15 16:54:00,84.7,39.2,29.06,WSW,254,1.7,3.8,20,0.00,,,0.00,WUHU216WMR100,2013-06-15 20:54:00,
2013-06-15 16:59:00,83.5,39.4,29.06,WSW,247,1.6,3.8,21,0.00,,,0.00,WUHU216WMR100,2013-06-15 20:59:00,
2013-06-15 17:04:00,83.3,39.3,29.06,SW,225,1.1,4.3,21,0.00,,,0.00,WUHU216WMR100,2013-06-15 21:04:00,
2013-06-15 17:09:00,83.7,39.6,29.06,West,276,2.1,4.3,21,0.00,,,0.00,WUHU216WMR100,2013-06-15 21:09:00,
2013-06-15 17:14:00,83.5,38.2,29.06,WNW,292,1.8,3.8,20,0.00,,,0.00,WUHU216WMR100,2013-06-15 21:14:00,
2013-06-15 17:19:00,82.6,38.7,29.06,SSW,202,2.5,3.8,21,0.00,,,0.00,WUHU216WMR100,2013-06-15 21:19:00,
2013-06-15 17:24:00,81.7,39.1,29.06,WNW,292,3.4,3.8,22,0.00,,,0.00,WUHU216WMR100,2013-06-15 21:24:00,
2013-06-15 17:29:00,84.2,40.0,29.06,NW,315,1.3,3.8,21,0.00,,,0.00,WUHU216WMR100,2013-06-15 21:29:00,
2013-06-15 17:34:00,83.8,39.7,29.06,WNW,289,2.8,4.9,21,0.00,,,0.00,WUHU216WMR100,2013-06-15 21:34:00,
2013-06-15 17:39:00,81.1,38.6,29.06,SSW,202,3.1,7.2,22,0.00,,,0.00,WUHU216WMR100,2013-06-15 21:39:00,
2013-06-15 17:44:00,79.9,38.7,29.06,NW,326,2.8,7.2,23,0.00,,,0.00,WUHU216WMR100,2013-06-15 21:44:00,
2013-06-15 17:49:00,79.5,39.5,29.06,WNW,283,2.4,7.2,24,0.00,,,0.00,WUHU216WMR100,2013-06-15 21:49:00,
2013-06-15 17:54:00,78.6,38.7,29.06,WNW,292,3.1,3.8,24,0.00,,,0.00,WUHU216WMR100,2013-06-15 21:54:00,
2013-06-15 17:59:00,78.1,40.3,29.06,SSW,194,2.7,4.0,26,0.00,,,0.00,WUHU216WMR100,2013-06-15 21:59:00,
2013-06-15 18:04:00,77.9,42.0,29.06,WNW,287,2.4,4.0,28,0.00,,,0.00,WUHU216WMR100,2013-06-15 22:04:00,
2013-06-15 18:09:00,77.9,43.8,29.06,WNW,292,2.9,4.3,30,0.00,,,0.00,WUHU216WMR100,2013-06-15 22:09:00,
2013-06-15 18:14:00,77.9,43.8,29.06,NNW,337,1.6,5.8,30,0.00,,,0.00,WUHU216WMR100,2013-06-15 22:14:00,
2013-06-15 18:19:00,77.7,43.6,29.06,NNW,337,1.6,5.8,30,0.00,,,0.00,WUHU216WMR100,2013-06-15 22:19:00,
2013-06-15 18:24:00,77.4,44.2,29.06,WSW,247,1.1,3.6,31,0.00,,,0.00,WUHU216WMR100,2013-06-15 22:24:00,
2013-06-15 18:29:00,77.2,44.1,29.06,WSW,247,1.2,2.7,31,0.00,,,0.00,WUHU216WMR100,2013-06-15 22:29:00,
2013-06-15 18:34:00,76.6,44.4,29.06,WSW,247,0.0,2.7,32,0.00,,,0.00,WUHU216WMR100,2013-06-15 22:34:00,
2013-06-15 18:39:00,76.1,43.9,29.06,WSW,247,1.8,3.6,32,0.00,,,0.00,WUHU216WMR100,2013-06-15 22:39:00,
2013-06-15 18:44:00,75.7,43.6,29.06,WSW,247,0.5,3.6,32,0.00,,,0.00,WUHU216WMR100,2013-06-15 22:44:00,
2013-06-15 18:49:00,75.4,43.3,29.06,West,270,0.0,3.1,32,0.00,,,0.00,WUHU216WMR100,2013-06-15 22:49:00,
2013-06-15 18:54:00,74.8,44.4,29.06,West,270,0.0,0.9,34,0.00,,,0.00,WUHU216WMR100,2013-06-15 22:54:00,
2013-06-15 18:59:00,74.3,44.7,29.06,West,270,0.0,2.7,35,0.00,,,0.00,WUHU216WMR100,2013-06-15 22:59:00,
2013-06-15 19:04:00,74.1,44.5,29.06,West,270,0.0,2.7,35,0.00,,,0.00,WUHU216WMR100,2013-06-15 23:04:00,
2013-06-15 19:10:00,73.8,45.8,29.06,West,270,0.0,0.0,37,0.00,,,0.00,WUHU216WMR100,2013-06-15 23:10:00,
2013-06-15 19:15:00,73.6,45.6,29.06,West,270,0.0,0.0,37,0.00,,,0.00,WUHU216WMR100,2013-06-15 23:15:00,
2013-06-15 19:20:00,73.2,46.6,29.06,WNW,292,0.0,2.5,39,0.00,,,0.00,WUHU216WMR100,2013-06-15 23:20:00,
2013-06-15 19:25:00,72.9,47.7,29.06,WNW,292,0.0,2.5,41,0.00,,,0.00,WUHU216WMR100,2013-06-15 23:25:00,
2013-06-15 19:30:00,72.3,47.8,29.06,WNW,292,0.0,2.2,42,0.00,,,0.00,WUHU216WMR100,2013-06-15 23:30:00,
2013-06-15 19:35:00,72.0,48.2,29.06,WNW,292,0.0,1.3,43,0.00,,,0.00,WUHU216WMR100,2013-06-15 23:35:00,
2013-06-15 19:40:00,71.6,47.9,29.06,WNW,292,0.0,0.0,43,0.00,,,0.00,WUHU216WMR100,2013-06-15 23:40:00,
2013-06-15 19:45:00,71.6,48.5,29.06,WNW,292,0.0,0.0,44,0.00,,,0.00,WUHU216WMR100,2013-06-15 23:45:00,
2013-06-15 19:51:00,71.4,48.3,29.06,WNW,292,0.0,0.0,44,0.00,,,0.00,WUHU216WMR100,2013-06-15 23:51:00,
2013-06-15 19:55:00,71.4,48.3,29.06,WNW,292,0.0,0.0,44,0.00,,,0.00,WUHU216WMR100,2013-06-15 23:55:00,
2013-06-15 20:00:00,71.4,48.3,29.06,WNW,292,0.0,0.0,44,0.00,,,0.00,WUHU216WMR100,2013-06-16 00:00:00,
2013-06-15 20:05:00,71.2,48.1,29.03,WNW,292,0.0,0.0,44,0.00,,,0.00,WUHU216WMR100,2013-06-16 00:05:00,
2013-06-15 20:10:00,71.2,48.1,29.03,WNW,292,0.0,0.0,44,0.00,,,0.00,WUHU216WMR100,2013-06-16 00:10:00,
2013-06-15 20:15:00,71.2,48.7,29.03,WNW,292,0.0,0.0,45,0.00,,,0.00,WUHU216WMR100,2013-06-16 00:15:00,
2013-06-15 20:20:00,71.1,48.7,29.03,WNW,292,0.0,0.0,45,0.00,,,0.00,WUHU216WMR100,2013-06-16 00:20:00,
2013-06-15 20:25:00,71.1,49.3,29.03,WNW,292,0.0,0.0,46,0.00,,,0.00,WUHU216WMR100,2013-06-16 00:25:00,
2013-06-15 20:30:00,70.9,49.1,29.03,WNW,292,0.0,0.0,46,0.00,,,0.00,WUHU216WMR100,2013-06-16 00:30:00,
2013-06-15 20:35:00,70.9,48.5,29.03,WNW,292,0.0,0.0,45,0.00,,,0.00,WUHU216WMR100,2013-06-16 00:35:00,
2013-06-15 20:40:00,70.9,48.5,29.03,WNW,292,0.0,0.0,45,0.00,,,0.00,WUHU216WMR100,2013-06-16 00:40:00,
2013-06-15 20:47:00,70.7,48.3,29.03,WNW,292,0.0,0.0,45,0.00,,,0.00,WUHU216WMR100,2013-06-16 00:47:00,
2013-06-15 20:52:00,70.7,48.3,29.03,WNW,292,0.0,0.0,45,0.00,,,0.00,WUHU216WMR100,2013-06-16 00:52:00,
2013-06-15 20:58:00,70.5,49.9,29.03,WNW,292,0.0,0.0,48,0.00,,,0.00,WUHU216WMR100,2013-06-16 00:58:00,
2013-06-15 21:03:00,70.2,49.6,29.00,WNW,292,0.0,0.0,48,0.00,,,0.00,WUHU216WMR100,2013-06-16 01:03:00,
2013-06-15 21:08:00,70.0,49.4,29.00,WNW,292,0.0,0.0,48,0.00,,,0.00,WUHU216WMR100,2013-06-16 01:08:00,
2013-06-15 21:13:00,69.8,49.8,29.00,WNW,292,0.0,0.0,49,0.00,,,0.00,WUHU216WMR100,2013-06-16 01:13:00,
2013-06-15 21:18:00,69.4,50.0,29.00,WNW,292,0.0,0.0,50,0.00,,,0.00,WUHU216WMR100,2013-06-16 01:18:00,
2013-06-15 21:23:00,69.1,50.3,29.00,WNW,292,0.0,0.0,51,0.00,,,0.00,WUHU216WMR100,2013-06-16 01:23:00,
2013-06-15 21:28:00,68.9,50.6,29.00,WNW,292,0.0,0.0,52,0.00,,,0.00,WUHU216WMR100,2013-06-16 01:28:00,
2013-06-15 21:33:00,68.7,51.0,29.03,WNW,292,0.0,0.0,53,0.00,,,0.00,WUHU216WMR100,2013-06-16 01:33:00,
2013-06-15 21:38:00,68.5,51.3,29.03,WNW,292,0.0,0.0,54,0.00,,,0.00,WUHU216WMR100,2013-06-16 01:38:00,
2013-06-15 21:43:00,68.4,52.2,29.03,WNW,292,0.0,0.0,56,0.00,,,0.00,WUHU216WMR100,2013-06-16 01:43:00,
2013-06-15 21:48:00,68.2,52.0,29.03,WNW,292,0.0,0.0,56,0.00,,,0.00,WUHU216WMR100,2013-06-16 01:48:00,
2013-06-15 21:53:00,67.8,52.6,29.03,WNW,292,0.0,0.0,58,0.00,,,0.00,WUHU216WMR100,2013-06-16 01:53:00,
2013-06-15 21:58:00,67.5,52.4,29.03,WNW,292,0.0,0.0,58,0.00,,,0.00,WUHU216WMR100,2013-06-16 01:58:00,
2013-06-15 22:03:00,67.5,52.8,29.03,WNW,292,0.0,0.0,59,0.00,,,0.00,WUHU216WMR100,2013-06-16 02:03:00,
2013-06-15 22:08:00,67.3,53.1,29.03,WNW,292,0.0,0.0,60,0.00,,,0.00,WUHU216WMR100,2013-06-16 02:08:00,
2013-06-15 22:13:00,67.3,53.6,29.03,WNW,292,0.0,0.0,61,0.00,,,0.00,WUHU216WMR100,2013-06-16 02:13:00,
2013-06-15 22:18:00,67.3,53.6,29.03,WNW,292,0.0,0.0,61,0.00,,,0.00,WUHU216WMR100,2013-06-16 02:18:00,
2013-06-15 22:23:00,67.3,54.0,29.03,WNW,292,0.0,0.0,62,0.00,,,0.00,WUHU216WMR100,2013-06-16 02:23:00,
2013-06-15 22:28:00,67.5,54.6,29.03,WNW,292,0.0,0.0,63,0.00,,,0.00,WUHU216WMR100,2013-06-16 02:28:00,
2013-06-15 22:33:00,67.5,54.6,29.03,WNW,292,0.0,0.0,63,0.00,,,0.00,WUHU216WMR100,2013-06-16 02:33:00,
2013-06-15 22:38:00,67.6,54.7,29.03,WNW,292,0.0,0.0,63,0.00,,,0.00,WUHU216WMR100,2013-06-16 02:38:00,
2013-06-15 22:43:00,67.6,54.7,29.03,WNW,292,0.0,0.0,63,0.00,,,0.00,WUHU216WMR100,2013-06-16 02:43:00,
2013-06-15 22:48:00,67.6,54.7,29.03,WNW,292,0.0,0.0,63,0.00,,,0.00,WUHU216WMR100,2013-06-16 02:48:00,
2013-06-15 22:53:00,67.6,54.7,29.03,WNW,292,0.0,0.0,63,0.00,,,0.00,WUHU216WMR100,2013-06-16 02:53:00,
2013-06-15 22:58:00,67.6,54.7,29.03,WNW,292,0.0,0.0,63,0.00,,,0.00,WUHU216WMR100,2013-06-16 02:58:00,
2013-06-15 23:03:00,67.6,55.2,29.03,WNW,292,0.0,0.0,64,0.00,,,0.00,WUHU216WMR100,2013-06-16 03:03:00,
2013-06-15 23:08:00,67.6,55.2,29.03,WNW,292,0.0,0.0,64,0.00,,,0.00,WUHU216WMR100,2013-06-16 03:08:00,
2013-06-15 23:13:00,67.6,55.6,29.03,WNW,292,0.0,0.0,65,0.00,,,0.00,WUHU216WMR100,2013-06-16 03:13:00,
2013-06-15 23:18:00,67.5,55.5,29.03,WNW,292,0.0,0.0,65,0.00,,,0.00,WUHU216WMR100,2013-06-16 03:18:00,
2013-06-15 23:23:00,67.5,55.5,29.03,WNW,292,0.0,0.0,65,0.00,,,0.00,WUHU216WMR100,2013-06-16 03:23:00,
2013-06-15 23:28:00,67.5,55.9,29.03,WNW,292,0.0,0.0,66,0.00,,,0.00,WUHU216WMR100,2013-06-16 03:28:00,
2013-06-15 23:33:00,67.5,55.9,29.03,WNW,292,0.0,0.0,66,0.00,,,0.00,WUHU216WMR100,2013-06-16 03:33:00,
2013-06-15 23:38:00,67.5,55.9,29.03,WNW,292,0.0,0.0,66,0.00,,,0.00,WUHU216WMR100,2013-06-16 03:38:00,
2013-06-15 23:43:00,67.5,55.9,29.03,WNW,292,0.0,0.0,66,0.00,,,0.00,WUHU216WMR100,2013-06-16 03:43:00,
2013-06-15 23:48:00,67.5,55.9,29.03,WNW,292,0.0,0.0,66,0.00,,,0.00,WUHU216WMR100,2013-06-16 03:48:00,
2013-06-15 23:53:00,67.5,55.5,29.03,WNW,292,0.0,0.0,65,0.00,,,0.00,WUHU216WMR100,2013-06-16 03:53:00,
2013-06-15 23:58:00,67.6,56.0,29.03,WNW,292,0.0,0.0,66,0.00,,,0.00,WUHU216WMR100,2013-06-16 03:58:00,